createdAt,value
2022-09-12T00:01:42.411Z,100937.50
2022-09-12T00:04:11.848Z,100936.50
2022-09-12T00:06:40.289Z,100925.75
2022-09-12T00:09:12.691Z,100926.00
2022-09-12T00:11:46.652Z,100927.28
2022-09-12T00:14:18.396Z,100919.13
2022-09-12T00:16:46.962Z,100927.00
2022-09-12T00:19:15.266Z,100922.44
2022-09-12T00:21:43.479Z,100920.50
2022-09-12T00:24:11.547Z,100920.34
2022-09-12T00:26:40.206Z,100916.25
2022-09-12T00:29:08.386Z,100916.25
2022-09-12T00:31:36.755Z,100916.91
2022-09-12T00:34:05.140Z,100915.97
2022-09-12T00:36:33.400Z,100912.69
2022-09-12T00:39:01.200Z,100912.53
2022-09-12T00:41:37.593Z,100909.94
2022-09-12T00:44:23.144Z,100917.00
2022-09-12T00:47:14.381Z,100905.88
2022-09-12T00:50:11.093Z,100908.66
2022-09-12T00:52:52.571Z,100916.72
2022-09-12T00:55:35.807Z,100905.44
2022-09-12T00:58:20.851Z,100909.34
2022-09-12T01:00:49.485Z,100907.72
2022-09-12T01:03:22.411Z,100903.63
2022-09-12T01:06:21.816Z,100900.38
2022-09-12T01:08:51.416Z,100899.06
2022-09-12T01:11:21.663Z,100901.38
2022-09-12T01:13:50.880Z,100905.63
2022-09-12T01:16:19.963Z,100908.06
2022-09-12T01:19:12.665Z,100901.69
2022-09-12T01:22:19.149Z,100899.25
2022-09-12T01:25:48.789Z,100894.81
2022-09-12T01:29:15.289Z,100899.09
2022-09-12T01:31:52.379Z,100889.75
2022-09-12T01:34:46.712Z,100892.06
2022-09-12T01:37:31.468Z,100892.72
2022-09-12T01:40:21.577Z,100896.19
2022-09-12T01:43:17.603Z,100894.38
2022-09-12T01:46:15.197Z,100895.19
2022-09-12T01:48:57.213Z,100903.38
2022-09-12T01:51:39.934Z,100900.91
2022-09-12T01:54:40.338Z,100895.03
2022-09-12T01:57:28.529Z,100895.69
2022-09-12T02:00:06.876Z,100891.09
2022-09-12T02:03:04.077Z,100894.56
2022-09-12T02:05:37.832Z,100887.34
2022-09-12T02:08:33.032Z,100885.72
2022-09-12T02:11:08.535Z,100884.75
2022-09-12T02:13:49.572Z,100883.94
2022-09-12T02:16:40.729Z,100879.50
2022-09-12T02:19:20.034Z,100875.94
2022-09-12T02:22:05.348Z,100872.66
2022-09-12T02:24:48.081Z,100876.56
2022-09-12T02:27:30.010Z,100874.94
2022-09-12T02:29:58.219Z,100873.31
2022-09-12T02:32:49.459Z,100874.78
2022-09-12T02:35:48.907Z,100880.34
2022-09-12T02:38:47.095Z,100876.94
2022-09-12T02:41:20.050Z,100873.66
2022-09-12T02:43:50.551Z,100867.25
2022-09-12T02:46:26.758Z,100868.91
2022-09-12T02:48:55.854Z,100873.16
2022-09-12T02:51:24.263Z,100869.88
2022-09-12T02:53:53.373Z,100877.41
2022-09-12T02:56:30.301Z,100863.84
2022-09-12T02:59:07.524Z,100862.19
2022-09-12T03:05:27.229Z,100851.94
2022-09-12T03:08:20.533Z,100860.75
2022-09-12T03:11:31.387Z,100849.13
2022-09-12T03:14:12.177Z,100847.97
2022-09-12T03:17:20.115Z,100850.44
2022-09-12T03:20:31.908Z,100847.19
2022-09-12T03:23:39.094Z,100842.28
2022-09-12T03:26:17.050Z,100842.13
2022-09-12T03:28:47.739Z,100841.28
2022-09-12T03:31:18.975Z,100842.63
2022-09-12T03:33:46.878Z,100837.69
2022-09-12T03:36:27.509Z,100852.94
2022-09-12T03:38:55.967Z,100844.91
2022-09-12T03:41:24.156Z,100844.72
2022-09-12T03:43:52.454Z,100847.84
2022-09-12T03:46:20.614Z,100846.69
2022-09-12T03:48:48.460Z,100843.44
2022-09-12T03:51:16.926Z,100847.66
2022-09-12T03:53:45.138Z,100844.72
2022-09-12T03:56:13.832Z,100844.25
2022-09-12T03:58:42.258Z,100845.03
2022-09-12T04:01:16.622Z,100842.59
2022-09-12T04:03:48.532Z,100838.53
2022-09-12T04:06:21.604Z,100838.34
2022-09-12T04:08:53.090Z,100839.50
2022-09-12T04:11:23.099Z,100840.13
2022-09-12T04:13:51.493Z,100840.81
2022-09-12T04:16:21.201Z,100841.94
2022-09-12T04:18:49.543Z,100839.16
2022-09-12T04:21:21.738Z,100835.38
2022-09-12T04:23:50.207Z,100842.06
2022-09-12T04:26:20.802Z,100835.19
2022-09-12T04:28:53.654Z,100846.66
2022-09-12T04:31:22.654Z,100840.09
2022-09-12T04:34:00.941Z,100841.22
2022-09-12T04:36:29.800Z,100837.97
2022-09-12T04:38:58.726Z,100844.34
2022-09-12T04:41:31.935Z,100839.44
2022-09-12T04:44:10.249Z,100838.13
2022-09-12T04:46:43.487Z,100832.09
2022-09-12T04:49:14.111Z,100834.38
2022-09-12T04:51:43.528Z,100839.94
2022-09-12T04:54:17.196Z,100838.28
2022-09-12T04:56:48.863Z,100837.78
2022-09-12T04:59:20.031Z,100834.53
2022-09-12T05:01:48.408Z,100832.72
2022-09-12T05:04:16.938Z,100838.44
2022-09-12T05:06:47.331Z,100828.13
2022-09-12T05:09:16.418Z,100823.72
2022-09-12T05:14:34.533Z,100824.06
2022-09-12T05:17:04.151Z,100821.44
2022-09-12T05:19:32.947Z,100825.03
2022-09-12T05:22:02.453Z,100827.00
2022-09-12T05:24:30.613Z,100816.69
2022-09-12T05:26:59.188Z,100828.97
2022-09-12T05:29:27.500Z,100819.16
2022-09-12T05:31:55.683Z,100821.13
2022-09-12T05:34:23.961Z,100826.03
2022-09-12T05:36:52.223Z,100822.63
2022-09-12T05:39:20.640Z,100815.72
2022-09-12T05:41:48.845Z,100816.53
2022-09-12T05:44:17.759Z,100819.00
2022-09-12T05:46:50.337Z,100814.13
2022-09-12T05:49:18.744Z,100807.88
2022-09-12T05:51:47.243Z,100813.31
2022-09-12T05:54:19.324Z,100810.53
2022-09-12T05:56:48.811Z,100813.16
2022-09-12T05:59:21.732Z,100813.03
2022-09-12T06:01:50.122Z,100810.56
2022-09-12T06:04:18.384Z,100815.16
2022-09-12T06:06:47.055Z,100811.38
2022-09-12T06:09:18.344Z,100814.31
2022-09-12T06:11:47.135Z,100816.25
2022-09-12T06:14:17.665Z,100815.59
2022-09-12T06:16:47.163Z,100823.78
2022-09-12T06:19:21.847Z,100824.91
2022-09-12T06:21:51.613Z,100817.50
2022-09-12T06:24:21.142Z,100810.16
2022-09-12T06:26:51.871Z,100814.72
2022-09-12T06:29:20.450Z,100823.53
2022-09-12T06:31:48.242Z,100823.03
2022-09-12T06:36:48.915Z,100805.75
2022-09-12T06:39:20.911Z,100808.00
2022-09-12T06:41:51.638Z,100803.22
2022-09-12T06:44:22.444Z,100808.09
2022-09-12T06:46:50.877Z,100802.59
2022-09-12T06:49:19.081Z,100811.69
2022-09-12T06:51:46.850Z,100807.38
2022-09-12T06:54:17.021Z,100806.97
2022-09-12T06:56:45.791Z,100811.31
2022-09-12T06:59:14.065Z,100821.72
2022-09-12T07:01:42.636Z,100813.91
2022-09-12T07:04:11.515Z,100817.31
2022-09-12T07:06:42.096Z,100816.69
2022-09-12T07:09:16.197Z,100816.59
2022-09-12T07:11:46.393Z,100813.84
2022-09-12T07:14:15.270Z,100813.16
2022-09-12T07:16:43.665Z,100815.66
2022-09-12T07:19:14.833Z,100815.34
2022-09-12T07:21:42.576Z,100818.03
2022-09-12T07:24:11.242Z,100809.91
2022-09-12T07:26:41.832Z,100820.25
2022-09-12T07:29:35.959Z,100817.19
2022-09-12T07:32:05.817Z,100813.91
2022-09-12T07:34:35.743Z,100813.19
2022-09-12T07:37:04.487Z,100812.47
2022-09-12T07:39:33.244Z,100805.22
2022-09-12T07:42:01.664Z,100805.50
2022-09-12T07:44:30.298Z,100798.59
2022-09-12T07:46:58.500Z,100807.00
2022-09-12T07:49:26.643Z,100809.69
2022-09-12T07:51:56.567Z,100800.00
2022-09-12T07:54:24.892Z,100805.59
2022-09-12T07:56:53.139Z,100799.59
2022-09-12T07:59:41.378Z,100808.28
2022-09-12T08:02:17.338Z,100798.50
2022-09-12T08:04:47.952Z,100799.75
2022-09-12T08:07:17.999Z,100803.25
2022-09-12T08:09:46.552Z,100803.06
2022-09-12T08:12:16.538Z,100810.56
2022-09-12T08:14:45.418Z,100809.84
2022-09-12T08:17:14.369Z,100812.16
2022-09-12T08:19:42.723Z,100811.63
2022-09-12T08:22:11.510Z,100799.66
2022-09-12T08:24:39.704Z,100806.69
2022-09-12T08:27:08.450Z,100807.03
2022-09-12T08:29:36.770Z,100802.53
2022-09-12T08:32:05.131Z,100807.97
2022-09-12T08:34:36.109Z,100801.75
2022-09-12T08:37:04.411Z,100797.56
2022-09-12T08:39:33.195Z,100798.09
2022-09-12T08:42:06.706Z,100790.31
2022-09-12T08:44:46.879Z,100794.16
2022-09-12T08:47:23.864Z,100791.66
2022-09-12T08:50:10.094Z,100785.78
2022-09-12T08:53:05.011Z,100795.28
2022-09-12T08:55:45.045Z,100790.56
2022-09-12T08:58:24.755Z,100784.41
2022-09-12T09:01:28.822Z,100786.56
2022-09-12T09:04:48.230Z,100791.66
2022-09-12T09:07:58.245Z,100785.63
2022-09-12T09:11:13.851Z,100787.00
2022-09-12T09:14:50.043Z,100787.13
2022-09-12T09:17:46.561Z,100781.16
2022-09-12T09:20:45.603Z,100777.97
2022-09-12T09:23:20.237Z,100775.34
2022-09-12T09:26:37.461Z,100774.75
2022-09-12T09:29:20.157Z,100774.78
2022-09-12T09:31:55.154Z,100771.31
2022-09-12T09:34:30.042Z,100780.91
2022-09-12T09:37:19.648Z,100784.69
2022-09-12T09:40:27.546Z,100792.06
2022-09-12T09:43:13.634Z,100783.41
2022-09-12T09:45:44.599Z,100777.94
2022-09-12T09:48:23.532Z,100785.81
2022-09-12T09:50:52.291Z,100771.78
2022-09-12T09:53:54.833Z,100775.09
2022-09-12T09:56:37.069Z,100771.97
2022-09-12T09:59:28.786Z,100765.56
2022-09-12T10:02:24.201Z,100760.44
2022-09-12T10:04:59.672Z,100757.75
2022-09-12T10:07:28.179Z,100757.00
2022-09-12T10:10:18.672Z,100745.34
2022-09-12T10:12:47.011Z,100753.16
2022-09-12T10:15:26.484Z,100747.91
2022-09-12T10:17:59.598Z,100736.66
2022-09-12T10:20:45.862Z,100734.69
2022-09-12T10:23:30.660Z,100735.47
2022-09-12T10:26:01.879Z,100732.69
2022-09-12T10:28:54.978Z,100734.69
2022-09-12T10:31:43.141Z,100738.59
2022-09-12T10:34:33.424Z,100743.09
2022-09-12T10:37:39.844Z,100735.53
2022-09-12T10:40:26.483Z,100725.06
2022-09-12T10:42:58.993Z,100725.47
2022-09-12T10:45:35.664Z,100717.75
2022-09-12T10:48:32.520Z,100717.31
2022-09-12T10:51:01.459Z,100708.00
2022-09-12T10:53:40.755Z,100700.47
2022-09-12T10:56:23.085Z,100704.50
2022-09-12T10:59:28.324Z,100705.50
2022-09-12T11:02:22.087Z,100703.25
2022-09-12T11:05:22.745Z,100698.38
2022-09-12T11:09:04.446Z,100692.63
2022-09-12T11:12:09.723Z,100698.63
2022-09-12T11:15:03.491Z,100690.63
2022-09-12T11:17:57.254Z,100694.69
2022-09-12T11:20:54.345Z,100692.00
2022-09-12T11:23:54.119Z,100689.63
2022-09-12T11:26:40.700Z,100682.19
2022-09-12T11:29:47.912Z,100673.53
2022-09-12T11:33:05.507Z,100676.63
2022-09-12T11:35:37.947Z,100679.94
2022-09-12T11:39:03.783Z,100665.88
2022-09-12T11:41:43.552Z,100658.84
2022-09-12T11:44:20.854Z,100658.59
2022-09-12T11:46:51.977Z,100644.88
2022-09-12T11:49:49.711Z,100640.88
2022-09-12T11:52:24.937Z,100654.22
2022-09-12T11:55:12.054Z,100654.03
2022-09-12T11:57:58.932Z,100640.91
2022-09-12T12:00:53.358Z,100641.75
2022-09-12T12:03:48.290Z,100633.09
2022-09-12T12:07:06.032Z,100639.66
2022-09-12T12:09:34.698Z,100637.94
2022-09-12T12:12:08.401Z,100638.00
2022-09-12T12:14:48.937Z,100632.75
2022-09-12T12:17:21.637Z,100626.75
2022-09-12T12:20:05.805Z,100623.06
2022-09-12T12:22:36.051Z,100626.44
2022-09-12T12:25:29.026Z,100610.66
2022-09-12T12:28:06.193Z,100618.28
2022-09-12T12:30:54.104Z,100612.81
2022-09-12T12:33:22.263Z,100602.22
2022-09-12T12:35:59.399Z,100610.81
2022-09-12T12:38:41.268Z,100604.19
2022-09-12T12:41:18.565Z,100604.19
2022-09-12T12:43:52.475Z,100598.59
2022-09-12T12:46:26.075Z,100594.47
2022-09-12T12:49:24.495Z,68092.72
2022-09-12T12:52:01.476Z,68092.72
2022-09-12T12:54:42.019Z,68092.72
2022-09-12T12:57:41.202Z,68092.72
2022-09-12T13:00:29.913Z,68092.72
2022-09-12T13:03:30.327Z,100594.47
2022-09-12T13:06:41.140Z,100594.47
2022-09-12T13:09:28.801Z,100568.63
2022-09-12T13:12:08.751Z,100570.72
2022-09-12T13:14:42.866Z,100559.72
2022-09-12T13:17:44.276Z,100556.03
2022-09-12T13:20:33.070Z,100555.16
2022-09-12T13:23:01.815Z,100564.31
2022-09-12T13:25:37.170Z,100555.44
2022-09-12T13:28:18.604Z,100550.47
2022-09-12T13:31:15.969Z,100549.19
2022-09-12T13:33:54.390Z,100538.94
2022-09-12T13:37:18.620Z,100538.94
2022-09-12T13:40:05.571Z,100534.03
2022-09-12T13:42:50.028Z,100531.09
2022-09-12T13:45:29.635Z,100534.03
2022-09-12T13:48:02.093Z,100520.50
2022-09-12T13:50:46.545Z,100521.63
2022-09-12T13:53:19.809Z,100523.47
2022-09-12T13:55:59.851Z,100518.84
2022-09-12T13:58:34.414Z,100525.78
2022-09-12T14:01:05.413Z,100525.09
2022-09-12T14:04:00.719Z,100514.69
2022-09-12T14:06:29.497Z,100520.69
2022-09-12T14:09:00.163Z,100509.69
2022-09-12T14:11:33.820Z,100505.78
2022-09-12T14:14:07.234Z,100498.84
2022-09-12T14:16:40.287Z,100485.94
2022-09-12T14:19:12.245Z,100488.47
2022-09-12T14:21:40.636Z,100487.66
2022-09-12T14:24:12.496Z,100491.22
2022-09-12T14:26:42.917Z,100484.69
2022-09-12T14:29:16.705Z,100475.34
2022-09-12T14:31:50.842Z,100481.06
2022-09-12T14:34:19.804Z,100482.19
2022-09-12T14:36:55.904Z,100478.13
2022-09-12T14:39:37.876Z,100479.66
2022-09-12T14:42:22.052Z,100480.00
2022-09-12T14:45:01.812Z,100467.97
2022-09-12T14:47:40.307Z,100468.13
2022-09-12T14:50:22.774Z,100460.59
2022-09-12T14:53:25.788Z,100458.50
2022-09-12T14:56:22.553Z,100460.81
2022-09-12T14:58:50.983Z,100451.00
2022-09-12T15:01:19.054Z,100450.53
2022-09-12T15:03:49.981Z,100450.69
2022-09-12T15:06:47.489Z,100449.56
2022-09-12T15:09:15.806Z,100453.13
2022-09-12T15:11:43.949Z,100447.19
2022-09-12T15:14:15.847Z,100432.75
2022-09-12T15:16:44.080Z,100433.31
2022-09-12T15:19:12.328Z,100425.06
2022-09-12T15:21:40.537Z,100435.81
2022-09-12T15:24:09.202Z,100436.19
2022-09-12T15:26:37.487Z,100433.19
2022-09-12T15:29:05.718Z,100428.19
2022-09-12T15:31:33.903Z,100429.25
2022-09-12T15:34:03.205Z,100429.78
2022-09-12T15:36:31.470Z,100426.44
2022-09-12T15:38:59.646Z,100426.09
2022-09-12T15:41:36.717Z,100429.91
2022-09-12T15:44:07.887Z,100437.78
2022-09-12T15:46:36.166Z,100431.63
2022-09-12T15:49:04.429Z,100425.94
2022-09-12T15:51:32.931Z,100434.47
2022-09-12T15:54:04.655Z,100434.06
2022-09-12T15:56:32.967Z,100435.88
2022-09-12T15:59:01.181Z,100426.25
2022-09-12T16:01:29.620Z,100429.91
2022-09-12T16:03:58.048Z,100416.47
2022-09-12T16:06:27.096Z,100414.41
2022-09-12T16:08:55.353Z,100416.56
2022-09-12T16:11:27.012Z,100409.78
2022-09-12T16:13:56.790Z,100408.75
2022-09-12T16:16:35.060Z,100401.88
2022-09-12T16:19:04.005Z,100403.81
2022-09-12T16:21:32.461Z,100403.59
2022-09-12T16:24:00.952Z,100409.91
2022-09-12T16:26:29.149Z,100401.25
2022-09-12T16:29:00.809Z,100399.56
2022-09-12T16:31:29.434Z,100398.81
2022-09-12T16:33:57.665Z,100398.56
2022-09-12T16:36:28.193Z,100386.59
2022-09-12T16:38:56.409Z,100375.94
2022-09-12T16:41:25.377Z,100382.75
2022-09-12T16:43:54.142Z,100384.28
2022-09-12T16:46:30.513Z,100379.31
2022-09-12T16:48:59.401Z,100368.59
2022-09-12T16:51:33.031Z,100362.25
2022-09-12T16:54:01.512Z,100370.19
2022-09-12T16:56:30.082Z,100361.88
2022-09-12T16:58:58.409Z,100351.91
2022-09-12T17:01:27.142Z,100359.09
2022-09-12T17:03:58.069Z,100358.19
2022-09-12T17:06:27.723Z,100360.72
2022-09-12T17:09:04.149Z,100361.22
2022-09-12T17:11:38.865Z,100359.41
2022-09-12T17:14:08.970Z,100357.25
2022-09-12T17:17:11.756Z,100351.78
2022-09-12T17:19:40.242Z,100354.03
2022-09-12T17:22:08.423Z,100353.69
2022-09-12T17:24:36.606Z,100347.91
2022-09-12T17:27:04.869Z,100348.06
2022-09-12T17:29:34.966Z,100347.94
2022-09-12T17:32:03.374Z,100349.50
2022-09-12T17:34:31.793Z,100354.22
2022-09-12T17:36:59.975Z,100352.91
2022-09-12T17:39:28.266Z,100342.69
2022-09-12T17:41:57.675Z,100340.69
2022-09-12T17:44:25.932Z,100339.31
2022-09-12T17:46:54.134Z,100349.22
2022-09-12T17:49:28.196Z,100334.56
2022-09-12T17:51:56.388Z,100334.78
2022-09-12T17:54:24.763Z,100335.59
2022-09-12T17:56:52.963Z,100343.75
2022-09-12T17:59:24.619Z,100338.22
2022-09-12T18:02:11.203Z,100345.56
2022-09-12T18:04:41.068Z,100344.06
2022-09-12T18:07:09.352Z,100347.00
2022-09-12T18:09:37.711Z,100347.94
2022-09-12T18:12:07.719Z,100353.22
2022-09-12T18:14:36.297Z,100352.91
2022-09-12T18:17:06.947Z,100339.63
2022-09-12T18:19:35.669Z,100353.00
2022-09-12T18:22:09.553Z,100342.53
2022-09-12T18:24:37.767Z,100338.13
2022-09-12T18:27:05.955Z,100334.53
2022-09-12T18:30:10.420Z,100335.78
2022-09-12T18:32:37.555Z,100333.78
2022-09-12T18:35:06.798Z,100335.41
2022-09-12T18:37:34.955Z,100339.41
2022-09-12T18:40:04.221Z,100330.53
2022-09-12T18:42:32.556Z,100333.38
2022-09-12T18:45:00.716Z,100332.13
2022-09-12T18:47:28.942Z,100328.91
2022-09-12T18:49:57.151Z,100328.91
2022-09-12T18:52:25.319Z,100327.22
2022-09-12T18:54:53.540Z,100328.81
2022-09-12T18:57:21.732Z,100326.78
2022-09-12T18:59:49.964Z,100312.66
2022-09-12T19:02:18.164Z,100312.59
2022-09-12T19:04:46.460Z,100320.59
2022-09-12T19:07:16.848Z,100316.88
2022-09-12T19:09:45.028Z,100323.66
2022-09-12T19:12:13.201Z,100320.44
2022-09-12T19:14:41.397Z,100319.91
2022-09-12T19:17:10.051Z,100313.88
2022-09-12T19:19:40.557Z,100300.97
2022-09-12T19:22:08.945Z,100308.16
2022-09-12T19:24:37.155Z,100300.06
2022-09-12T19:27:05.614Z,100304.81
2022-09-12T19:29:33.777Z,100307.94
2022-09-12T19:32:08.705Z,100304.66
2022-09-12T19:34:37.024Z,100302.97
2022-09-12T19:37:05.227Z,100302.53
2022-09-12T19:39:34.367Z,100293.22
2022-09-12T19:42:02.586Z,100293.53
2022-09-12T19:44:30.971Z,100285.44
2022-09-12T19:46:59.263Z,100282.94
2022-09-12T19:49:27.428Z,100284.84
2022-09-12T19:51:55.635Z,100294.00
2022-09-12T19:54:23.832Z,100283.13
2022-09-12T19:56:52.245Z,100289.06
2022-09-12T19:59:20.615Z,100279.75
2022-09-12T20:01:51.993Z,100276.88
2022-09-12T20:04:20.223Z,100270.03
2022-09-12T20:06:48.401Z,100283.97
2022-09-12T20:09:16.639Z,100276.28
2022-09-12T20:11:44.993Z,100281.81
2022-09-12T20:14:13.267Z,100268.13
2022-09-12T20:16:41.469Z,100271.28
2022-09-12T20:19:09.988Z,100264.81
2022-09-12T20:21:38.300Z,100265.16
2022-09-12T20:24:11.860Z,100266.66
2022-09-12T20:26:40.557Z,100258.59
2022-09-12T20:29:09.988Z,100263.44
2022-09-12T20:31:40.989Z,100252.81
2022-09-12T20:34:17.282Z,100251.53
2022-09-12T20:36:46.504Z,100248.66
2022-09-12T20:39:22.167Z,100249.00
2022-09-12T20:41:50.576Z,100248.16
2022-09-12T20:44:18.948Z,100250.47
2022-09-12T20:46:47.169Z,100250.78
2022-09-12T20:49:15.341Z,100241.91
2022-09-12T20:51:43.371Z,100245.88
2022-09-12T20:54:11.842Z,100248.63
2022-09-12T20:56:40.052Z,100233.81
2022-09-12T20:59:11.201Z,100236.56
2022-09-12T21:01:39.675Z,100225.31
2022-09-12T21:04:10.711Z,100220.47
2022-09-12T21:06:41.216Z,100215.19
2022-09-12T21:09:09.410Z,100213.91
2022-09-12T21:11:37.629Z,100210.31
2022-09-12T21:14:05.875Z,100208.25
2022-09-12T21:16:38.497Z,100197.00
2022-09-12T21:19:06.911Z,100198.56
2022-09-12T21:22:00.847Z,100189.72
2022-09-12T21:24:29.536Z,100188.44
2022-09-12T21:27:02.176Z,100195.59
2022-09-12T21:29:32.264Z,100194.38
2022-09-12T21:32:00.493Z,100196.72
2022-09-12T21:34:28.686Z,100196.28
2022-09-12T21:36:56.828Z,100194.19
2022-09-12T21:39:25.198Z,100190.19
2022-09-12T21:41:53.698Z,100182.09
2022-09-12T21:44:22.220Z,100190.66
2022-09-12T21:46:50.510Z,100185.94
2022-09-12T21:49:18.890Z,100190.75
2022-09-12T21:51:47.104Z,100192.28
2022-09-12T21:54:15.306Z,100184.47
2022-09-12T21:56:43.565Z,100183.09
2022-09-12T21:59:11.802Z,100183.84
2022-09-12T22:01:41.069Z,100182.78
2022-09-12T22:04:11.430Z,100192.72
2022-09-12T22:06:39.737Z,100188.31
2022-09-12T22:09:07.912Z,100189.03
2022-09-12T22:11:36.082Z,100192.59
2022-09-12T22:14:04.563Z,100184.50
2022-09-12T22:16:33.715Z,100175.25
2022-09-12T22:19:01.980Z,100164.34
2022-09-12T22:21:31.286Z,100175.47
2022-09-12T22:24:17.769Z,100166.56
2022-09-12T22:26:46.485Z,100156.94
2022-09-12T22:29:14.798Z,100152.88
2022-09-12T22:31:43.130Z,100156.44
2022-09-12T22:34:11.493Z,100168.00
2022-09-12T22:36:39.966Z,100172.75
2022-09-12T22:39:08.562Z,100169.53
2022-09-12T22:41:43.948Z,100162.78
2022-09-12T22:44:12.248Z,100159.53
2022-09-12T22:46:40.698Z,100166.31
2022-09-12T22:49:08.963Z,100159.09
2022-09-12T22:51:37.391Z,100163.06
2022-09-12T22:54:05.972Z,100164.69
2022-09-12T22:56:34.364Z,100161.50
2022-09-12T22:59:02.475Z,100158.72
2022-09-12T23:01:31.790Z,100162.72
2022-09-12T23:04:00.299Z,100149.53
2022-09-12T23:06:28.549Z,100139.94
2022-09-12T23:08:56.692Z,100144.75
2022-09-12T23:11:24.953Z,100151.13
2022-09-12T23:13:53.339Z,100148.78
2022-09-12T23:16:25.565Z,100144.81
2022-09-12T23:18:53.997Z,100137.69
2022-09-12T23:21:22.505Z,100139.28
2022-09-12T23:23:51.153Z,100134.50
2022-09-12T23:26:23.994Z,100141.69
2022-09-12T23:28:59.732Z,100136.09
2022-09-12T23:31:31.958Z,100133.00
2022-09-12T23:34:05.739Z,100140.53
2022-09-12T23:36:34.331Z,100144.16
2022-09-12T23:39:02.940Z,100142.69
2022-09-12T23:41:31.416Z,100149.56
2022-09-12T23:43:59.285Z,100161.69
2022-09-12T23:46:27.554Z,100157.47
2022-09-12T23:48:55.729Z,100166.72
2022-09-12T23:51:23.871Z,100159.56
2022-09-12T23:53:52.280Z,100161.28
2022-09-12T23:56:22.012Z,100154.16
2022-09-12T23:58:50.299Z,100157.81
